Hastings Natural History Reservation, California Weather observations

Data are for 10 minute period ending at time listed.
 Day   Time   Solar   Ave.   Ave.  Ave.  Vector  Max.   Baro.   Total    
  of    of     Rad.   Air    Rel.  Wind   Wind   Wind  Press.  Precip.   
Year   Day            Temp.  Hum.  Speed  Dir.   Gust                    
2017   (PST)  Kw/m2    F      %     mph   deg.    mph    mb.     in.     
-------------------------------------------------------------------------
 293    9:50   0.07   51.9    70    2.1   323     5.6   955.7    0.00 
 293   10:00   0.10   52.4    68    4.3   249    12.0   955.7    0.00 
 293   10:10   0.11   52.1    67    7.0   236    13.8   955.7    0.00 
 293   10:20   0.13   52.6    65    6.0   245    13.5   955.4    0.00 
 293   10:30   0.14   53.4    65    3.5   322    10.4   955.6    0.00 
 293   10:40   0.12   53.7    64    3.4   252     9.1   955.6    0.00 
 293   10:50   0.17   54.1    63    4.6   249    10.7   955.7    0.00 
 293   11:00   0.10   54.1    61    5.4   246    11.5   955.7    0.00 
 293   11:10   0.10   54.4    59    4.6   241    11.9   955.8    0.00 
 293   11:20   0.10   55.0    57    4.0   247    10.8   955.8    0.00 
 293   11:30   0.13   55.5    56    5.0   250    11.5   955.7    0.00 
 293   11:40   0.13   55.7    54    4.2   249    11.0   955.7    0.00 
 293   11:50   0.56   56.2    50    4.1   249    13.7   955.6    0.00 
 293   12:00   0.60   56.5    48    5.6   251    12.8   955.6    0.00 
 293   12:10   0.61   56.6    47    5.0   272    14.2   955.6    0.00 
 293   12:20   0.60   57.8    46    3.4   259     8.4   955.5    0.00 
 293   12:30   0.61   57.1    46    5.8   250    13.7   955.1    0.00 
 293   12:40   0.61   57.6    45    2.9   318    10.0   955.1    0.00 
 293   12:50   0.61   57.9    44    2.8   330     9.5   955.1    0.00 
 293   13:00   0.59   58.0    44    3.9   258    10.2   955.0    0.00 
 293   13:10   0.60   57.4    44    6.3   243    15.4   954.9    0.00 
 293   13:20   0.60   57.9    46    3.9   261    11.2   954.8    0.00 
 293   13:30   0.60   58.7    45    4.4   264    11.4   954.8    0.00 
 293   13:40   0.60   58.7    45    3.7   266    10.4   954.8    0.00 
 293   13:50   0.53   59.3    45    3.5   318    14.9   954.8    0.00 
 293   14:00   0.43   59.0    46    3.3   270    10.2   954.7    0.00 
 293   14:10   0.52   58.7    46    3.1   273     9.9   954.9    0.00 
 293   14:20   0.49   58.6    46    5.8   246    12.6   954.8    0.00 
 293   14:30   0.51   57.1    48    5.6   251    13.6   954.9    0.00 
 293   14:40   0.43   57.6    49    4.2   247    10.4   955.0    0.00 
 293   14:50   0.43   56.7    52    5.7   243    11.8   954.9    0.00 
 293   15:00   0.42   56.8    52    5.1   248    11.5   955.0    0.00 
 293   15:10   0.40   57.1    54    4.2   260    14.5   955.2    0.00 
 293   15:20   0.37   56.7    54    5.6   253    12.9   955.0    0.00 
 293   15:30   0.21   55.4    57    4.8   255    11.2   955.1    0.00 
 293   15:40   0.12   54.4    58    2.8   288     9.4   955.4    0.00 
 293   15:50   0.07   53.6    58    2.9   315     9.1   955.4    0.00 
 293   16:00   0.16   53.5    58    2.5   316     8.2   955.6    0.00 
 293   16:10   0.14   54.3    57    2.8   318     9.1   955.7    0.00 
 293   16:20   0.07   53.4    61    2.5   326     7.7   955.9    0.00 
 293   16:30   0.05   52.6    63    2.3   309     7.6   955.9    0.00 
 293   16:40   0.03   52.4    64    2.4   348     9.2   955.9    0.00 
 293   16:50   0.02   51.9    65    3.0   313    10.5   955.8    0.00 
 293   17:00   0.01   51.5    66    2.2   323     6.4   955.8    0.00 
 293   17:10   0.01   51.4    68    2.0   278     6.0   955.7    0.00 
 293   17:20   0.00   51.1    69    2.2   274     8.6   955.8    0.00 
 293   17:30   0.00   50.6    70    1.9   252     5.3   956.1    0.00 
 293   17:40   0.00   50.4    71    1.0   286     4.2   956.1    0.00 
 293   17:50   0.00   50.3    71    2.5   243     6.7   956.2    0.00 
 293   18:00   0.00   50.1    72    2.7   247     6.3   956.2    0.00 
 293   18:10   0.00   49.9    73    2.4   251     5.6   956.2    0.00 
 293   18:20   0.00   49.9    73    0.7   288     2.9   956.4    0.00 
 293   18:30   0.00   49.7    74    1.1   319     4.4   956.6    0.00 
 293   18:40   0.00   49.7    74    0.5   355     3.0   956.6    0.00 
 293   18:50   0.00   49.5    74    1.6   251     4.3   956.6    0.00 
 293   19:00   0.00   49.1    76    2.0   246     5.0   956.6    0.00 
 293   19:10   0.00   49.1    76    1.6   253     4.2   956.6    0.00 
 293   19:20   0.00   48.8    76    2.5   242     5.8   956.8    0.00 
 293   19:30   0.00   48.7    76    2.2   239     3.5   956.8    0.00 
 293   19:40   0.00   48.7    76    1.4   245     2.5   957.0    0.00 
 293   19:50   0.00   48.6    76    1.7   242     3.7   957.0    0.00 
 293   20:00   0.00   48.6    76    1.3   246     3.7   957.2    0.00 
 293   20:10   0.00   48.6    76    2.3   254     4.0   957.2    0.00 
 293   20:20   0.00   48.5    77    1.7   312     3.8   957.1    0.00 
 293   20:30   0.00   48.2    77    0.9   331     3.7   957.1    0.00 
 293   20:40   0.00   47.9    78    0.9   302     2.1   957.3    0.00 
 293   20:50   0.00   47.8    79    0.5   354     1.6   957.2    0.00 
 293   21:00   0.00   47.5    79    0.1   336     1.7   957.2    0.00 
 293   21:10   0.00   47.0    80    0.4   317     1.2   957.4    0.00 
 293   21:20   0.00   46.9    81    0.4   286     1.5   957.4    0.00 
 293   21:30   0.00   46.6    82    0.5   246     1.5   957.4    0.00 
 293   21:40   0.00   46.5    83    0.2   250     2.0   957.6    0.00 
 293   21:50   0.00   46.7    82    0.5   357     2.2   957.7    0.00 
 293   22:00   0.00   46.6    82    0.6     9     2.3   957.7    0.00 
 293   22:10   0.00   46.3    82    1.2    11     3.1   957.8    0.00 
 293   22:20   0.00   45.9    82    1.0    32     2.3   957.8    0.00 
 293   22:30   0.00   45.7    82    1.1    40     3.0   957.8    0.00 
 293   22:40   0.00   45.4    83    0.9    37     2.8   957.9    0.00 
 293   22:50   0.00   45.2    83    0.8    41     2.6   957.8    0.00 
 293   23:00   0.00   44.5    83    0.8    50     2.7   957.8    0.00 
 293   23:10   0.00   43.9    84    1.5    46     3.5   957.8    0.00 
 293   23:20   0.00   43.8    85    0.9    26     2.3   957.7    0.00 
 293   23:30   0.00   42.8    85    0.4     4     2.0   957.5    0.00 
 293   23:40   0.00   42.1    86    0.3   244     1.1   957.3    0.00 
 293   23:50   0.00   41.7    87    0.9    30     2.8   957.3    0.00 
 294    0:00   0.00   41.8    87    0.5    48     2.4   957.3    0.00 
 294    0:10   0.00   41.4    88    0.2    49     0.9   957.1    0.00 
 294    0:20   0.00   41.0    88    0.4    52     1.8   956.8    0.00 
 294    0:30   0.00   40.4    88    0.8    45     2.7   956.8    0.00 
 294    0:40   0.00   40.3    89    0.5    50     3.0   957.2    0.00 
 294    0:50   0.00   40.0    89    0.4    77     2.2   957.3    0.00 
 294    1:00   0.00   40.0    90    1.2    38     3.2   957.3    0.00 
 294    1:10   0.00   39.6    90    0.4   250     2.0   957.4    0.00 
 294    1:20   0.00   39.1    90    1.0   242     2.3   957.5    0.00 
 294    1:30   0.00   38.7    91    1.0   242     2.7   957.4    0.00 
 294    1:40   0.00   38.5    91    0.3    61     1.2   957.3    0.00 
 294    1:50   0.00   38.5    91    0.5   213     2.4   957.3    0.00 
 294    2:00   0.00   38.1    91    0.6   237     2.6   957.2    0.00 
 294    2:10   0.00   37.7    92    0.7     3     2.3   957.2    0.00 
 294    2:20   0.00   38.1    92    0.9   153     2.0   957.3    0.00 
 294    2:30   0.00   37.8    92    0.4   105     1.6   957.3    0.00 
 294    2:40   0.00   37.9    93    0.7   191     2.1   957.3    0.00 
 294    2:50   0.00   37.7    93    0.1    98     1.4   957.3    0.00 
 294    3:00   0.00   37.7    93    0.0     0     0.0   957.2    0.00 
 294    3:10   0.00   37.7    93    0.7    62     2.2   957.3    0.00 
 294    3:20   0.00   38.4    94    1.0    73     3.9   957.2    0.00 
 294    3:30   0.00   37.7    93    0.9   234     2.1   957.2    0.00 
 294    3:40   0.00   37.6    93    0.1   252     1.8   957.3    0.00 
 294    3:50   0.00   37.4    93    0.5   242     1.2   957.5    0.00 
 294    4:00   0.00   37.3    93    0.2   216     2.3   957.4    0.00 
 294    4:10   0.00   37.1    93    1.4   249     2.8   957.4    0.00 
 294    4:20   0.00   37.1    94    0.5    46     1.7   957.4    0.00 
 294    4:30   0.00   37.1    93    0.7   233     1.7   957.5    0.00 
 294    4:40   0.00   36.8    93    0.3    40     0.9   957.7    0.00 
 294    4:50   0.00   36.8    93    0.1    32     1.2   957.8    0.00 
 294    5:00   0.00   37.0    94    0.7    60     1.8   957.7    0.00 
 294    5:10   0.00   37.1    94    1.3    53     2.2   957.8    0.00 
 294    5:20   0.00   37.5    94    0.8    57     2.9   957.8    0.00 
 294    5:30   0.00   37.4    93    0.3   338     1.7   957.8    0.00 
 294    5:40   0.00   36.9    94    0.4   238     1.7   957.9    0.00 
 294    5:50   0.00   36.7    94    0.8   245     2.6   958.0    0.00 
 294    6:00   0.00   36.5    94    0.4   208     1.8   958.1    0.00 
 294    6:10   0.00   36.4    94    0.2   242     1.2   958.1    0.00 
 294    6:20   0.00   36.3    94    0.0     0     0.0   958.2    0.00 
 294    6:30   0.00   36.4    94    0.0   348     0.9   958.3    0.00 
 294    6:40   0.01   36.4    94    0.6   240     2.2   958.3    0.00 
 294    6:50   0.01   36.6    94    0.1   169     1.2   958.5    0.00 
 294    7:00   0.01   36.9    94    0.3   240     1.2   958.6    0.00 
 294    7:10   0.01   37.2    94    0.0   252     0.7   958.7    0.00 
 294    7:20   0.01   37.4    94    0.0     0     0.0   958.8    0.00 
 294    7:30   0.01   37.8    94    0.4   310     1.5   958.8    0.00 
 294    7:40   0.01   38.4    94    0.4    96     1.8   958.8    0.00 
 294    7:50   0.01   39.2    94    1.1    61     3.2   958.8    0.00 
 294    8:00   0.01   40.3    94    0.9    81     2.1   958.9    0.00 
 294    8:10   0.01   41.3    93    0.3    80     1.2   959.1    0.00 
 294    8:20   0.01   42.8    91    0.3   161     1.3   959.2    0.00 
 294    8:30   0.01   45.1    84    0.6   198     2.0   959.2    0.00 
 294    8:40   0.02   47.5    70    0.6   194     1.7   959.3    0.00 
 294    8:50   0.03   49.6    60    0.6   229     2.9   959.3    0.00 
 294    9:00   0.03   51.6    54    0.8   241     5.5   959.3    0.00 
 294    9:10   0.03   52.5    49    2.1   235     4.8   959.4    0.00 
 294    9:20   0.03   53.5    47    2.4   246     5.4   959.5    0.00 
 294    9:30   0.03   53.8    46    2.1   240     5.8   959.6    0.00 
 294    9:40   0.04   54.7    45    1.1   340     4.3   959.6    0.00 

Return to Hastings Natural History Reservation graphs page.


Western Regional Climate Center,wrcc@dri.edu